Lowry, Colorado
Current Conditions -  °F | °C
As of 3:58 PM on Tuesday 27 Jan 2015 (Local Time) from KBKF Reporting Station
Scattered Clouds Scattered Clouds  
Wind Chill: 67°   Ceiling: Unl
Heat Index: 67°   Visibility: 10mi
Dew Point: 33°   Wind: 12mph
Humidity: 29%   Direction: 60°ENE
Pressure: 30.03"   Gusts: NA
Location:  39.732°N, 104.924°W
Report Text: KBKF 272258Z 06010KT 10SM FEW160 SCT220 20/01 A3003 RMK AO2A SLP119 T01960008
Loading
Personal Weather Stations






























Interactive Weather Map New forecast layout! Learn more

10-Day Weather Forecast

Advertisements
Track Severe Weather on mobile